aviador You're here:

KJMR Decoded Metar

MORA in MN, USA
Report Time2017-11-21 02:20:00
UTC Time2017-11-21 02:34:33
Flight Rules vfr VFR
Wind250° at 06 kt
W.Decomp.*RWY 17: 1.3 kt HW 5.8 kt RCW
W.Rank250° ranks 28
Current wind is below 250° avg. (6.1)
Visibility9999 m
Phenomena:N/A
Clouds:N/A
Expected CloudBase > 1,600 ft AGL from Temp-Dew spread
CeilingNone
Temp02°C (ISA -11)
Dew Point-2°C (75% RH)
AAT-2.4°C
QNH996 hPa
Density Alt341 ft
Elevation1,014 ft
Report Wrong Elevation
Raw Report
METAR KJMR 210220Z AUTO 25006KT 10SM CLR 02/M02 A2940 RMK AO2=

Extra information for KJMR:More info

Metar Taf Metar & Taf Last 4 Metars F.Rules Stats Wind Profile Meteogram Temp Stats Airport Information Weather charts Add Link Nearby VenuesMetar ALERT Operation Metar Decoded Social comments

AIRNAV info for KJMR